createdAt,value
2023-04-18T00:00:15.081Z,3.79
2023-04-18T00:01:56.472Z,2.91
2023-04-18T00:03:38.075Z,2.62
2023-04-18T00:05:19.633Z,2.71
2023-04-18T00:07:01.094Z,2.99
2023-04-18T00:08:42.400Z,2.85
2023-04-18T00:10:23.674Z,3.09
2023-04-18T00:12:05.017Z,2.91
2023-04-18T00:13:46.310Z,2.89
2023-04-18T00:15:27.620Z,3.02
2023-04-18T00:17:09.046Z,3.14
2023-04-18T00:18:50.392Z,3.30
2023-04-18T00:20:31.688Z,3.79
2023-04-18T00:22:13.023Z,4.14
2023-04-18T00:23:54.286Z,4.29
2023-04-18T00:25:35.617Z,3.89
2023-04-18T00:27:16.890Z,3.34
2023-04-18T00:28:58.177Z,3.30
2023-04-18T00:30:39.506Z,3.51
2023-04-18T00:32:20.866Z,3.41
2023-04-18T00:34:02.170Z,3.32
2023-04-18T00:35:43.471Z,2.97
2023-04-18T00:37:24.789Z,3.04
2023-04-18T00:39:06.065Z,3.21
2023-04-18T00:40:47.383Z,3.57
2023-04-18T00:42:28.676Z,3.38
2023-04-18T00:44:09.985Z,3.12
2023-04-18T00:45:51.321Z,3.49
2023-04-18T00:47:32.685Z,3.13
2023-04-18T00:49:14.060Z,2.18
2023-04-18T00:50:55.348Z,2.07
2023-04-18T00:52:36.625Z,2.88
2023-04-18T00:54:17.916Z,3.34
2023-04-18T00:55:59.202Z,3.63
2023-04-18T00:57:40.544Z,3.99
2023-04-18T00:59:21.843Z,3.78
2023-04-18T01:01:03.221Z,3.81
2023-04-18T01:02:44.724Z,3.13
2023-04-18T01:04:26.351Z,3.19
2023-04-18T01:06:07.688Z,3.60
2023-04-18T01:07:49.004Z,3.83
2023-04-18T01:09:30.400Z,3.23
2023-04-18T01:11:11.700Z,3.15
2023-04-18T01:12:52.998Z,2.60
2023-04-18T01:14:34.321Z,1.66
2023-04-18T01:16:15.664Z,1.50
2023-04-18T01:17:56.980Z,1.84
2023-04-18T01:19:38.336Z,2.04
2023-04-18T01:21:19.626Z,1.95
2023-04-18T01:23:00.929Z,2.35
2023-04-18T01:24:42.227Z,1.87
2023-04-18T01:26:23.500Z,1.09
2023-04-18T01:28:04.862Z,1.09
2023-04-18T01:29:46.194Z,1.65
2023-04-18T01:31:27.543Z,2.21
2023-04-18T01:33:08.863Z,2.52
2023-04-18T01:34:50.177Z,1.59
2023-04-18T01:36:31.520Z,1.55
2023-04-18T01:38:12.817Z,0.97
2023-04-18T01:39:54.211Z,0.34
2023-04-18T01:41:35.546Z,0.63
2023-04-18T01:43:16.819Z,0.88
2023-04-18T01:44:58.130Z,1.30
2023-04-18T01:46:39.437Z,1.75
2023-04-18T01:48:20.758Z,1.57
2023-04-18T01:50:02.057Z,1.03
2023-04-18T01:51:43.361Z,0.51
2023-04-18T01:53:24.665Z,0.53
2023-04-18T01:55:05.946Z,0.99
2023-04-18T01:56:47.248Z,1.36
2023-04-18T01:58:28.523Z,1.27
2023-04-18T02:00:09.838Z,1.32
2023-04-18T02:01:51.187Z,1.61
2023-04-18T02:03:32.709Z,1.47
2023-04-18T02:05:14.140Z,0.88
2023-04-18T02:06:55.453Z,1.10
2023-04-18T02:08:36.753Z,1.73
2023-04-18T02:10:18.088Z,1.35
2023-04-18T02:11:59.437Z,1.10
2023-04-18T02:13:40.805Z,1.06
2023-04-18T02:15:22.068Z,1.83
2023-04-18T02:17:03.363Z,1.83
2023-04-18T02:18:44.643Z,1.79
2023-04-18T02:20:25.915Z,1.43
2023-04-18T02:22:07.221Z,1.43
2023-04-18T02:23:48.530Z,1.44
2023-04-18T02:25:29.840Z,1.76
2023-04-18T02:27:11.160Z,1.84
2023-04-18T02:28:52.441Z,1.76
2023-04-18T02:30:33.724Z,2.09
2023-04-18T02:32:15.056Z,2.01
2023-04-18T02:33:56.349Z,1.57
2023-04-18T02:35:37.680Z,1.67
2023-04-18T02:37:18.982Z,1.68
2023-04-18T02:39:00.268Z,1.55
2023-04-18T02:40:41.591Z,1.38
2023-04-18T02:42:22.914Z,1.63
2023-04-18T02:44:04.214Z,1.27
2023-04-18T02:45:45.551Z,1.25
2023-04-18T02:47:26.942Z,1.51
2023-04-18T02:49:08.275Z,1.53
2023-04-18T02:50:49.562Z,1.03
2023-04-18T02:52:30.860Z,1.20
2023-04-18T02:54:12.325Z,1.84
2023-04-18T02:55:53.779Z,2.14
2023-04-18T02:57:35.097Z,1.84
2023-04-18T02:59:16.380Z,2.05
2023-04-18T03:00:57.682Z,2.14
2023-04-18T03:02:39.053Z,1.89
2023-04-18T03:04:20.375Z,2.02
2023-04-18T03:06:01.688Z,1.58
2023-04-18T03:07:43.032Z,1.64
2023-04-18T03:09:24.324Z,2.22
2023-04-18T03:11:05.594Z,2.47
2023-04-18T03:12:46.919Z,2.52
2023-04-18T03:14:28.195Z,1.34
2023-04-18T03:16:09.520Z,1.27
2023-04-18T03:17:50.884Z,1.90
2023-04-18T03:19:32.181Z,1.93
2023-04-18T03:21:13.472Z,0.82
2023-04-18T03:22:54.801Z,0.95
2023-04-18T03:24:36.090Z,1.36
2023-04-18T03:26:17.439Z,1.80
2023-04-18T03:27:58.744Z,1.73
2023-04-18T03:29:40.053Z,1.24
2023-04-18T03:31:21.434Z,1.31
2023-04-18T03:33:03.024Z,1.43
2023-04-18T03:34:44.465Z,1.83
2023-04-18T03:36:25.769Z,1.75
2023-04-18T03:38:07.103Z,1.78
2023-04-18T03:39:48.392Z,1.91
2023-04-18T03:41:29.723Z,1.86
2023-04-18T03:43:11.116Z,1.64
2023-04-18T03:44:52.391Z,1.03
2023-04-18T03:46:33.793Z,0.93
2023-04-18T03:48:15.107Z,1.12
2023-04-18T03:49:56.383Z,1.66
2023-04-18T03:51:37.686Z,1.64
2023-04-18T03:53:18.957Z,1.48
2023-04-18T03:55:00.338Z,1.48
2023-04-18T03:56:41.710Z,0.94
2023-04-18T04:00:04.419Z,0.65
2023-04-18T04:01:45.788Z,0.91
2023-04-18T04:03:27.220Z,1.11
2023-04-18T04:05:08.606Z,1.48
2023-04-18T04:06:49.966Z,1.68
2023-04-18T04:08:31.255Z,1.26
2023-04-18T04:10:12.582Z,0.66
2023-04-18T04:11:53.911Z,0.57
2023-04-18T04:13:35.203Z,0.88
2023-04-18T04:15:16.500Z,1.42
2023-04-18T04:16:57.787Z,1.85
2023-04-18T04:18:39.050Z,1.99
2023-04-18T04:20:20.340Z,2.13
2023-04-18T04:22:01.671Z,1.98
2023-04-18T04:23:43.024Z,1.34
2023-04-18T04:25:24.515Z,1.21
2023-04-18T04:27:05.968Z,0.86
2023-04-18T04:28:47.333Z,0.51
2023-04-18T04:30:28.680Z,0.59
2023-04-18T04:32:10.014Z,1.04
2023-04-18T04:33:51.350Z,1.39
2023-04-18T04:35:32.651Z,1.49
2023-04-18T04:37:14.085Z,0.92
2023-04-18T04:38:55.756Z,0.59
2023-04-18T04:40:37.056Z,0.95
2023-04-18T04:42:18.337Z,1.21
2023-04-18T04:43:59.646Z,1.40
2023-04-18T04:45:40.985Z,1.44
2023-04-18T04:47:22.403Z,1.27
2023-04-18T04:49:03.770Z,0.94
2023-04-18T04:50:45.046Z,0.96
2023-04-18T04:52:26.341Z,1.16
2023-04-18T04:54:07.701Z,1.00
2023-04-18T04:55:48.996Z,0.99
2023-04-18T04:57:30.295Z,1.18
2023-04-18T04:59:11.602Z,0.97
2023-04-18T05:00:52.949Z,1.14
2023-04-18T05:02:34.430Z,1.34
2023-04-18T05:04:16.093Z,1.27
2023-04-18T05:05:57.672Z,0.99
2023-04-18T05:07:38.932Z,0.55
2023-04-18T05:09:20.265Z,0.38
2023-04-18T05:11:01.586Z,0.38
2023-04-18T05:12:42.911Z,0.25
2023-04-18T05:14:25.410Z,0.39
2023-04-18T05:16:06.704Z,0.72
2023-04-18T05:17:48.017Z,1.07
2023-04-18T05:19:29.344Z,0.77
2023-04-18T05:21:10.633Z,0.68
2023-04-18T05:22:51.918Z,0.81
2023-04-18T05:24:33.208Z,0.88
2023-04-18T05:26:14.518Z,0.79
2023-04-18T05:27:55.814Z,0.82
2023-04-18T05:29:37.106Z,0.85
2023-04-18T05:31:18.428Z,0.71
2023-04-18T05:32:59.820Z,0.79
2023-04-18T05:34:41.135Z,1.09
2023-04-18T05:36:22.465Z,0.96
2023-04-18T05:38:03.750Z,0.66
2023-04-18T05:39:45.048Z,0.47
2023-04-18T05:41:26.376Z,0.54
2023-04-18T05:43:07.687Z,0.94
2023-04-18T05:44:48.949Z,0.56
2023-04-18T05:46:30.268Z,0.55
2023-04-18T05:48:11.599Z,0.89
2023-04-18T05:49:52.909Z,1.18
2023-04-18T05:51:34.228Z,1.51
2023-04-18T05:53:15.549Z,1.73
2023-04-18T05:54:56.814Z,1.88
2023-04-18T05:56:38.120Z,1.15
2023-04-18T05:58:19.556Z,1.09
2023-04-18T06:00:00.876Z,1.17
2023-04-18T06:01:42.175Z,1.69
2023-04-18T06:03:23.755Z,0.98
2023-04-18T06:05:05.603Z,0.79
2023-04-18T06:06:47.228Z,0.73
2023-04-18T06:08:28.489Z,0.59
2023-04-18T06:10:09.769Z,1.03
2023-04-18T06:11:51.067Z,1.19
2023-04-18T06:13:32.361Z,0.63
2023-04-18T06:15:13.660Z,0.81
2023-04-18T06:16:55.039Z,0.84
2023-04-18T06:18:36.344Z,0.96
2023-04-18T06:20:17.640Z,1.27
2023-04-18T06:21:58.938Z,1.06
2023-04-18T06:23:40.228Z,0.54
2023-04-18T06:25:21.535Z,0.53
2023-04-18T06:27:02.895Z,1.04
2023-04-18T06:28:44.214Z,1.55
2023-04-18T06:30:25.570Z,1.46
2023-04-18T06:32:06.932Z,1.12
2023-04-18T06:33:48.223Z,0.88
2023-04-18T06:35:29.543Z,0.79
2023-04-18T06:37:10.837Z,0.87
2023-04-18T06:38:52.120Z,1.18
2023-04-18T06:40:33.464Z,1.55
2023-04-18T06:42:14.776Z,1.71
2023-04-18T06:44:14.574Z,2.08
2023-04-18T06:45:56.090Z,1.94
2023-04-18T06:47:37.675Z,2.11
2023-04-18T06:49:19.733Z,1.52
2023-04-18T06:51:02.107Z,1.19
2023-04-18T06:52:43.443Z,1.33
2023-04-18T06:54:24.764Z,1.56
2023-04-18T06:56:06.063Z,1.84
2023-04-18T06:57:47.399Z,1.98
2023-04-18T06:59:28.678Z,1.73
2023-04-18T07:01:10.019Z,1.63
2023-04-18T07:02:51.446Z,1.46
2023-04-18T07:04:32.866Z,1.40
2023-04-18T07:06:14.202Z,1.18
2023-04-18T07:07:55.561Z,1.23
2023-04-18T07:09:36.871Z,1.33
2023-04-18T07:11:18.194Z,1.19
2023-04-18T07:12:59.468Z,1.49
2023-04-18T07:14:40.742Z,1.44
2023-04-18T07:16:22.110Z,1.83
2023-04-18T07:18:03.447Z,2.24
2023-04-18T07:19:44.884Z,1.98
2023-04-18T07:21:26.168Z,2.01
2023-04-18T07:23:07.455Z,1.76
2023-04-18T07:24:48.801Z,1.70
2023-04-18T07:26:30.094Z,1.68
2023-04-18T07:28:11.405Z,1.93
2023-04-18T07:29:52.719Z,2.47
2023-04-18T07:31:34.115Z,2.87
2023-04-18T07:33:15.551Z,2.95
2023-04-18T07:34:56.849Z,2.61
2023-04-18T07:36:38.157Z,2.40
2023-04-18T07:38:19.469Z,2.87
2023-04-18T07:40:00.858Z,3.24
2023-04-18T07:41:42.207Z,3.46
2023-04-18T07:43:23.631Z,3.67
2023-04-18T07:45:04.923Z,4.07
2023-04-18T07:46:46.404Z,4.56
2023-04-18T07:48:27.930Z,4.49
2023-04-18T07:50:09.329Z,4.54
2023-04-18T07:51:50.682Z,5.24
2023-04-18T07:53:32.052Z,5.52
2023-04-18T07:55:13.389Z,5.26
2023-04-18T07:56:54.683Z,5.05
2023-04-18T07:58:35.985Z,5.09
2023-04-18T08:00:17.291Z,5.31
2023-04-18T08:01:58.670Z,5.65
2023-04-18T08:03:40.167Z,6.12
2023-04-18T08:05:21.592Z,7.03
2023-04-18T08:07:02.947Z,7.75
2023-04-18T08:08:44.241Z,8.24
2023-04-18T08:10:25.537Z,8.53
2023-04-18T08:12:06.866Z,8.31
2023-04-18T08:13:48.239Z,8.81
2023-04-18T08:15:29.562Z,9.36
2023-04-18T08:17:10.879Z,9.44
2023-04-18T08:18:52.171Z,9.73
2023-04-18T08:20:33.492Z,9.50
2023-04-18T08:22:14.831Z,8.47
2023-04-18T08:23:56.113Z,8.92
2023-04-18T08:25:37.401Z,9.35
2023-04-18T08:27:18.735Z,9.72
2023-04-18T08:29:00.060Z,10.05
2023-04-18T08:30:41.337Z,9.35
2023-04-18T08:32:22.757Z,9.31
2023-04-18T08:34:05.077Z,9.70
2023-04-18T08:35:46.633Z,10.09
2023-04-18T08:37:28.027Z,10.49
2023-04-18T08:39:09.398Z,10.72
2023-04-18T08:40:50.669Z,10.42
2023-04-18T08:42:31.976Z,10.72
2023-04-18T08:44:13.491Z,10.98
2023-04-18T08:45:55.001Z,10.80
2023-04-18T08:47:36.334Z,10.47
2023-04-18T08:49:17.681Z,10.69
2023-04-18T08:50:59.013Z,10.59
2023-04-18T08:52:40.351Z,10.11
2023-04-18T08:54:21.652Z,10.80
2023-04-18T08:56:02.985Z,10.75
2023-04-18T08:57:44.312Z,11.16
2023-04-18T08:59:25.572Z,11.11
2023-04-18T09:01:06.990Z,10.59
2023-04-18T09:02:48.404Z,10.07
2023-04-18T09:04:29.823Z,10.21
2023-04-18T09:06:11.206Z,9.89
2023-04-18T09:07:52.562Z,9.99
2023-04-18T09:09:33.857Z,10.06
2023-04-18T09:11:15.165Z,10.95
2023-04-18T09:12:56.469Z,11.35
2023-04-18T09:14:37.777Z,11.30
2023-04-18T09:16:19.122Z,11.56
2023-04-18T09:18:00.523Z,11.86
2023-04-18T09:19:41.813Z,11.80
2023-04-18T09:21:23.192Z,11.82
2023-04-18T09:23:04.478Z,11.40
2023-04-18T09:24:45.891Z,11.23
2023-04-18T09:26:27.216Z,11.61
2023-04-18T09:28:08.547Z,11.53
2023-04-18T09:29:49.834Z,11.48
2023-04-18T09:31:31.219Z,10.26
2023-04-18T09:33:12.585Z,10.16
2023-04-18T09:34:53.903Z,8.24
2023-04-18T09:36:35.267Z,8.23
2023-04-18T09:38:16.630Z,7.51
2023-04-18T09:39:58.008Z,7.19
2023-04-18T09:41:39.348Z,7.74
2023-04-18T09:43:20.648Z,7.05
2023-04-18T09:45:02.002Z,7.75
2023-04-18T09:46:46.535Z,8.40
2023-04-18T09:48:28.634Z,8.78
2023-04-18T09:50:09.913Z,8.25
2023-04-18T09:51:51.209Z,7.54
2023-04-18T09:53:32.600Z,7.48
2023-04-18T09:55:13.952Z,7.73
2023-04-18T09:56:55.357Z,8.52
2023-04-18T09:58:36.703Z,9.21
2023-04-18T10:00:18.007Z,9.27
2023-04-18T10:01:59.438Z,9.81
2023-04-18T10:03:41.022Z,10.20
2023-04-18T10:05:22.366Z,10.07
2023-04-18T10:07:03.721Z,9.25
2023-04-18T10:08:45.023Z,9.99
2023-04-18T10:10:26.350Z,9.25
2023-04-18T10:12:07.697Z,9.08
2023-04-18T10:13:49.039Z,8.64
2023-04-18T10:15:30.823Z,8.71
2023-04-18T10:17:12.397Z,8.45
2023-04-18T10:18:53.678Z,8.46
2023-04-18T10:20:35.337Z,8.23
2023-04-18T10:22:16.978Z,9.07
2023-04-18T10:23:58.293Z,9.67
2023-04-18T10:25:39.590Z,10.09
2023-04-18T10:27:20.947Z,10.39
2023-04-18T10:29:02.235Z,10.66
2023-04-18T10:30:43.556Z,10.79
2023-04-18T10:32:24.947Z,10.02
2023-04-18T10:34:06.404Z,9.47
2023-04-18T10:35:47.758Z,10.30
2023-04-18T10:37:29.116Z,10.96
2023-04-18T10:39:10.400Z,10.83
2023-04-18T10:40:51.739Z,11.46
2023-04-18T10:42:33.070Z,11.59
2023-04-18T10:44:14.624Z,11.46
2023-04-18T10:45:56.207Z,11.81
2023-04-18T10:47:37.701Z,12.08
2023-04-18T10:49:19.144Z,12.64
2023-04-18T10:51:00.432Z,11.49
2023-04-18T10:52:41.761Z,10.32
2023-04-18T10:54:23.049Z,10.79
2023-04-18T10:56:04.457Z,10.76
2023-04-18T10:57:45.779Z,10.79
2023-04-18T10:59:27.081Z,10.07
2023-04-18T11:01:08.399Z,9.23
2023-04-18T11:02:49.829Z,9.02
2023-04-18T11:04:31.455Z,8.67
2023-04-18T11:06:12.872Z,8.47
2023-04-18T11:07:54.465Z,8.41
2023-04-18T11:09:35.931Z,8.28
2023-04-18T11:11:17.349Z,8.69
2023-04-18T11:12:58.660Z,9.05
2023-04-18T11:14:39.937Z,9.15
2023-04-18T11:16:21.299Z,9.09
2023-04-18T11:18:02.677Z,8.74
2023-04-18T11:19:43.993Z,8.70
2023-04-18T11:21:25.318Z,8.40
2023-04-18T11:23:06.607Z,8.02
2023-04-18T11:24:47.896Z,8.34
2023-04-18T11:26:29.240Z,8.51
2023-04-18T11:28:10.546Z,8.13
2023-04-18T11:29:51.836Z,8.94
2023-04-18T11:31:33.298Z,9.14
2023-04-18T11:33:14.689Z,9.54
2023-04-18T11:34:55.993Z,8.97
2023-04-18T11:36:37.298Z,8.44
2023-04-18T11:38:18.642Z,8.69
2023-04-18T11:39:59.943Z,8.98
2023-04-18T11:41:41.265Z,8.69
2023-04-18T11:43:22.724Z,9.87
2023-04-18T11:45:04.070Z,9.93
2023-04-18T11:46:45.354Z,9.32
2023-04-18T11:48:26.644Z,9.33
2023-04-18T11:50:08.057Z,9.16
2023-04-18T11:51:49.385Z,10.20
2023-04-18T11:53:30.691Z,10.08
2023-04-18T11:55:11.991Z,9.46
2023-04-18T11:56:53.265Z,9.52
2023-04-18T11:58:34.572Z,9.12
2023-04-18T12:00:15.930Z,9.32
2023-04-18T12:01:58.858Z,9.72
2023-04-18T12:03:40.495Z,10.71
2023-04-18T12:05:22.055Z,10.66
2023-04-18T12:07:03.612Z,10.50
2023-04-18T12:08:44.900Z,10.72
2023-04-18T12:10:26.193Z,11.23
2023-04-18T12:12:07.489Z,11.67
2023-04-18T12:13:48.792Z,11.94
2023-04-18T12:15:30.074Z,12.62
2023-04-18T12:17:11.355Z,12.14
2023-04-18T12:18:52.652Z,10.69
2023-04-18T12:20:33.943Z,9.46
2023-04-18T12:22:15.241Z,10.68
2023-04-18T12:23:56.527Z,10.36
2023-04-18T12:25:37.793Z,10.22
2023-04-18T12:27:19.099Z,9.66
2023-04-18T12:29:00.372Z,9.93
2023-04-18T12:30:41.653Z,9.94
2023-04-18T12:32:22.921Z,10.19
2023-04-18T12:34:04.225Z,10.95
2023-04-18T12:35:46.402Z,10.91
2023-04-18T12:37:28.595Z,11.01
2023-04-18T12:39:09.887Z,10.63
2023-04-18T12:40:51.186Z,9.80
2023-04-18T12:42:32.479Z,10.16
2023-04-18T12:44:13.968Z,10.74
2023-04-18T12:45:55.413Z,10.61
2023-04-18T12:47:36.723Z,10.45
2023-04-18T12:49:18.047Z,10.64
2023-04-18T12:50:59.312Z,10.19
2023-04-18T12:52:40.714Z,9.94
2023-04-18T12:54:22.055Z,10.68
2023-04-18T12:56:03.323Z,10.17
2023-04-18T12:57:44.622Z,10.31
2023-04-18T12:59:25.909Z,10.09
2023-04-18T13:01:07.233Z,9.65
2023-04-18T13:02:48.719Z,9.84
2023-04-18T13:04:30.256Z,9.91
2023-04-18T13:06:11.742Z,10.11
2023-04-18T13:07:58.635Z,10.45
2023-04-18T13:09:43.200Z,9.58
2023-04-18T13:11:24.452Z,9.97
2023-04-18T13:13:05.754Z,9.94
2023-04-18T13:14:47.127Z,9.56
2023-04-18T13:16:28.428Z,9.85
2023-04-18T13:18:09.709Z,9.79
2023-04-18T13:19:51.030Z,10.53
2023-04-18T13:21:32.299Z,10.39
2023-04-18T13:23:13.549Z,10.18
2023-04-18T13:24:54.906Z,9.40
2023-04-18T13:26:36.228Z,9.14
2023-04-18T13:28:17.521Z,8.88
2023-04-18T13:29:58.813Z,9.06
2023-04-18T13:31:40.171Z,8.53
2023-04-18T13:33:21.483Z,8.31
2023-04-18T13:35:04.316Z,8.02
2023-04-18T13:36:45.619Z,8.70
2023-04-18T13:38:27.204Z,9.26
2023-04-18T13:40:08.718Z,9.12
2023-04-18T13:41:50.071Z,8.82
2023-04-18T13:43:31.472Z,9.09
2023-04-18T13:45:12.879Z,8.60
2023-04-18T13:46:54.168Z,8.63
2023-04-18T13:48:35.468Z,8.91
2023-04-18T13:50:16.822Z,9.64
2023-04-18T13:51:58.099Z,10.20
2023-04-18T13:53:39.433Z,10.12
2023-04-18T13:55:20.751Z,10.15
2023-04-18T13:57:02.041Z,10.24
2023-04-18T13:58:43.344Z,10.96
2023-04-18T14:00:24.682Z,10.79
2023-04-18T14:02:06.016Z,10.97
2023-04-18T14:03:47.604Z,10.64
2023-04-18T14:05:29.101Z,10.56
2023-04-18T14:07:10.417Z,10.21
2023-04-18T14:08:51.689Z,10.53
2023-04-18T14:10:32.994Z,10.63
2023-04-18T14:12:14.289Z,10.77
2023-04-18T14:13:55.560Z,10.80
2023-04-18T14:15:36.863Z,9.99
2023-04-18T14:17:18.218Z,9.81
2023-04-18T14:18:59.497Z,9.66
2023-04-18T14:20:40.781Z,10.24
2023-04-18T14:22:22.090Z,10.14
2023-04-18T14:24:03.356Z,9.73
2023-04-18T14:25:44.632Z,10.07
2023-04-18T14:27:25.920Z,10.42
2023-04-18T14:29:07.213Z,10.62
2023-04-18T14:30:48.501Z,10.40
2023-04-18T14:32:29.872Z,9.73
2023-04-18T14:34:11.189Z,9.85
2023-04-18T14:35:52.495Z,10.29
2023-04-18T14:37:33.843Z,9.90
2023-04-18T14:39:15.376Z,9.85
2023-04-18T14:40:56.728Z,9.57
2023-04-18T14:42:38.022Z,9.71
2023-04-18T14:44:19.347Z,10.22
2023-04-18T14:46:00.761Z,10.64
2023-04-18T14:47:42.182Z,10.68
2023-04-18T14:49:23.565Z,10.85
2023-04-18T14:51:04.880Z,10.57
2023-04-18T14:52:46.177Z,9.82
2023-04-18T14:54:27.516Z,9.90
2023-04-18T14:56:08.814Z,10.81
2023-04-18T14:57:50.224Z,10.53
2023-04-18T14:59:31.563Z,9.87
2023-04-18T15:01:12.838Z,9.53
2023-04-18T15:02:54.321Z,9.19
2023-04-18T15:04:36.058Z,8.93
2023-04-18T15:06:17.395Z,8.74
2023-04-18T15:07:58.740Z,8.78
2023-04-18T15:09:40.099Z,9.52
2023-04-18T15:11:21.454Z,8.93
2023-04-18T15:13:02.737Z,9.09
2023-04-18T15:14:44.033Z,9.52
2023-04-18T15:16:25.424Z,10.04
2023-04-18T15:18:06.758Z,10.39
2023-04-18T15:19:48.061Z,9.85
2023-04-18T15:21:29.360Z,9.70
2023-04-18T15:23:10.692Z,9.93
2023-04-18T15:24:52.079Z,9.40
2023-04-18T15:26:33.493Z,8.77
2023-04-18T15:28:14.851Z,8.83
2023-04-18T15:29:56.843Z,9.34
2023-04-18T15:31:39.268Z,9.10
2023-04-18T15:33:20.861Z,8.66
2023-04-18T15:35:02.382Z,9.09
2023-04-18T15:36:43.810Z,9.23
2023-04-18T15:38:25.119Z,9.25
2023-04-18T15:40:06.585Z,9.08
2023-04-18T15:41:48.530Z,8.84
2023-04-18T15:43:30.007Z,8.90
2023-04-18T15:45:11.290Z,8.55
2023-04-18T15:46:52.784Z,8.30
2023-04-18T15:48:34.335Z,8.49
2023-04-18T15:50:15.693Z,8.88
2023-04-18T15:51:56.996Z,9.23
2023-04-18T15:53:38.285Z,9.34
2023-04-18T15:55:19.571Z,9.65
2023-04-18T15:57:00.845Z,9.45
2023-04-18T15:58:42.714Z,9.41
2023-04-18T16:00:24.413Z,9.09
2023-04-18T16:02:05.819Z,8.77
2023-04-18T16:03:47.245Z,8.91
2023-04-18T16:05:28.607Z,8.80
2023-04-18T16:07:09.882Z,8.42
2023-04-18T16:08:51.159Z,8.13
2023-04-18T16:10:32.467Z,8.49
2023-04-18T16:12:13.761Z,8.52
2023-04-18T16:13:55.031Z,9.20
2023-04-18T16:15:36.369Z,9.50
2023-04-18T16:17:17.699Z,10.04
2023-04-18T16:18:58.991Z,10.16
2023-04-18T16:20:40.363Z,9.46
2023-04-18T16:22:21.679Z,9.47
2023-04-18T16:24:02.982Z,9.50
2023-04-18T16:25:44.306Z,9.70
2023-04-18T16:27:25.642Z,10.29
2023-04-18T16:29:07.022Z,10.49
2023-04-18T16:30:48.388Z,10.66
2023-04-18T16:32:29.796Z,10.56
2023-04-18T16:34:11.109Z,10.45
2023-04-18T16:35:52.658Z,10.37
2023-04-18T16:37:34.152Z,10.45
2023-04-18T16:39:15.457Z,10.68
2023-04-18T16:40:56.768Z,10.47
2023-04-18T16:42:38.074Z,10.55
2023-04-18T16:44:19.407Z,10.47
2023-04-18T16:46:00.763Z,10.43
2023-04-18T16:47:42.128Z,10.66
2023-04-18T16:49:23.519Z,10.60
2023-04-18T16:51:04.801Z,10.74
2023-04-18T16:52:46.073Z,10.71
2023-04-18T16:54:27.351Z,10.70
2023-04-18T16:56:08.633Z,10.80
2023-04-18T16:57:49.926Z,10.69
2023-04-18T16:59:31.421Z,10.66
2023-04-18T17:01:12.710Z,10.47
2023-04-18T17:02:54.045Z,10.17
2023-04-18T17:04:35.496Z,9.52
2023-04-18T17:06:16.835Z,9.97
2023-04-18T17:07:58.105Z,9.74
2023-04-18T17:09:39.413Z,9.99
2023-04-18T17:11:20.767Z,10.38
2023-04-18T17:13:02.085Z,10.33
2023-04-18T17:14:43.379Z,9.92
2023-04-18T17:16:24.703Z,10.12
2023-04-18T17:18:06.062Z,10.21
2023-04-18T17:19:47.416Z,9.94
2023-04-18T17:21:28.729Z,9.95
2023-04-18T17:23:10.004Z,10.16
2023-04-18T17:24:51.295Z,10.40
2023-04-18T17:26:32.594Z,10.27
2023-04-18T17:28:13.924Z,9.93
2023-04-18T17:29:55.232Z,9.82
2023-04-18T17:31:36.573Z,9.79
2023-04-18T17:33:17.905Z,9.72
2023-04-18T17:34:59.191Z,9.56
2023-04-18T17:36:40.479Z,9.82
2023-04-18T17:38:21.741Z,9.72
2023-04-18T17:40:03.052Z,9.85
2023-04-18T17:41:44.347Z,9.63
2023-04-18T17:43:25.620Z,9.77
2023-04-18T17:45:06.925Z,10.14
2023-04-18T17:46:50.002Z,9.92
2023-04-18T17:48:31.803Z,9.69
2023-04-18T17:50:13.133Z,9.68
2023-04-18T17:51:54.427Z,9.33
2023-04-18T17:53:35.739Z,8.80
2023-04-18T17:55:17.023Z,8.46
2023-04-18T17:56:58.308Z,8.22
2023-04-18T17:58:39.610Z,8.00
2023-04-18T18:00:20.892Z,7.98
2023-04-18T18:02:02.210Z,7.98
2023-04-18T18:03:43.848Z,7.70
2023-04-18T18:05:25.299Z,7.62
2023-04-18T18:07:06.890Z,7.24
2023-04-18T18:08:48.172Z,7.31
2023-04-18T18:10:29.492Z,6.78
2023-04-18T18:12:10.823Z,6.62
2023-04-18T18:13:52.116Z,7.19
2023-04-18T18:15:33.397Z,6.56
2023-04-18T18:17:14.691Z,6.65
2023-04-18T18:18:55.996Z,7.14
2023-04-18T18:20:37.276Z,7.27
2023-04-18T18:22:18.590Z,7.40
2023-04-18T18:23:59.913Z,7.36
2023-04-18T18:25:41.217Z,7.17
2023-04-18T18:27:22.490Z,6.96
2023-04-18T18:29:03.794Z,7.22
2023-04-18T18:30:45.072Z,7.46
2023-04-18T18:32:26.398Z,7.74
2023-04-18T18:34:07.765Z,7.91
2023-04-18T18:35:49.093Z,8.27
2023-04-18T18:37:30.404Z,8.40
2023-04-18T18:39:11.795Z,8.71
2023-04-18T18:40:53.211Z,8.46
2023-04-18T18:42:34.509Z,7.90
2023-04-18T18:44:15.804Z,7.97
2023-04-18T18:45:57.138Z,8.07
2023-04-18T18:47:39.990Z,8.17
2023-04-18T18:49:21.698Z,8.01
2023-04-18T18:51:02.989Z,7.99
2023-04-18T18:52:44.941Z,8.08
2023-04-18T18:54:26.463Z,7.78
2023-04-18T18:56:07.750Z,7.64
2023-04-18T18:57:49.028Z,7.72
2023-04-18T18:59:30.415Z,7.54
2023-04-18T19:01:11.719Z,7.80
2023-04-18T19:02:53.117Z,7.40
2023-04-18T19:04:34.573Z,7.13
2023-04-18T19:06:15.889Z,6.93
2023-04-18T19:07:57.219Z,6.66
2023-04-18T19:09:38.557Z,6.84
2023-04-18T19:11:19.815Z,6.57
2023-04-18T19:13:01.084Z,6.33
2023-04-18T19:14:42.566Z,6.32
2023-04-18T19:16:23.978Z,6.18
2023-04-18T19:18:05.396Z,6.21
2023-04-18T19:19:46.850Z,6.39
2023-04-18T19:21:28.222Z,6.21
2023-04-18T19:23:09.518Z,6.61
2023-04-18T19:24:50.812Z,6.74
2023-04-18T19:26:32.098Z,6.54
2023-04-18T19:28:13.653Z,6.30
2023-04-18T19:29:55.527Z,6.35
2023-04-18T19:31:36.904Z,6.30
2023-04-18T19:33:18.209Z,6.08
2023-04-18T19:34:59.562Z,6.01
2023-04-18T19:36:40.905Z,6.30
2023-04-18T19:38:23.731Z,6.22
2023-04-18T19:40:05.031Z,6.31
2023-04-18T19:41:46.369Z,6.48
2023-04-18T19:43:27.768Z,6.71
2023-04-18T19:45:09.052Z,6.53
2023-04-18T19:46:50.378Z,6.59
2023-04-18T19:48:31.813Z,6.16
2023-04-18T19:50:13.296Z,6.20
2023-04-18T19:51:54.752Z,6.25
2023-04-18T19:53:36.440Z,6.58
2023-04-18T19:55:18.022Z,6.44
2023-04-18T19:56:59.404Z,6.40
2023-04-18T19:58:40.921Z,6.49
2023-04-18T20:00:22.333Z,6.52
2023-04-18T20:02:05.824Z,6.48
2023-04-18T20:03:48.076Z,6.25
2023-04-18T20:05:29.693Z,6.44
2023-04-18T20:07:11.051Z,6.69
2023-04-18T20:08:52.373Z,6.33
2023-04-18T20:10:33.744Z,6.43
2023-04-18T20:12:15.144Z,6.23
2023-04-18T20:13:56.596Z,5.95
2023-04-18T20:15:37.910Z,6.03
2023-04-18T20:17:19.449Z,5.59
2023-04-18T20:19:00.767Z,6.08
2023-04-18T20:20:42.081Z,6.42
2023-04-18T20:22:23.403Z,6.71
2023-04-18T20:24:04.707Z,6.65
2023-04-18T20:25:46.021Z,6.65
2023-04-18T20:27:27.303Z,6.96
2023-04-18T20:29:08.637Z,7.18
2023-04-18T20:30:50.187Z,7.09
2023-04-18T20:32:31.523Z,7.09
2023-04-18T20:34:12.874Z,6.76
2023-04-18T20:35:54.245Z,6.24
2023-04-18T20:37:35.757Z,6.30
2023-04-18T20:39:17.199Z,5.92
2023-04-18T20:40:58.765Z,5.79
2023-04-18T20:42:40.231Z,5.91
2023-04-18T20:44:21.591Z,5.74
2023-04-18T20:46:02.928Z,5.84
2023-04-18T20:47:44.435Z,5.80
2023-04-18T20:49:25.770Z,5.92
2023-04-18T20:51:07.082Z,5.62
2023-04-18T20:52:48.371Z,5.57
2023-04-18T20:54:29.677Z,5.53
2023-04-18T20:56:10.969Z,5.69
2023-04-18T20:57:52.990Z,5.95
2023-04-18T20:59:34.336Z,6.15
2023-04-18T21:01:15.731Z,6.05
2023-04-18T21:02:57.140Z,5.31
2023-04-18T21:04:38.637Z,5.77
2023-04-18T21:06:20.002Z,5.66
2023-04-18T21:08:01.344Z,5.37
2023-04-18T21:09:42.641Z,4.74
2023-04-18T21:11:23.910Z,4.61
2023-04-18T21:13:05.206Z,4.61
2023-04-18T21:14:46.466Z,5.01
2023-04-18T21:16:27.851Z,5.08
2023-04-18T21:18:09.372Z,5.13
2023-04-18T21:19:50.840Z,5.55
2023-04-18T21:21:32.200Z,5.08
2023-04-18T21:23:13.518Z,4.98
2023-04-18T21:24:54.791Z,4.96
2023-04-18T21:26:36.088Z,4.93
2023-04-18T21:28:17.369Z,5.33
2023-04-18T21:29:58.663Z,5.41
2023-04-18T21:31:40.004Z,5.39
2023-04-18T21:33:21.396Z,5.31
2023-04-18T21:35:02.690Z,5.27
2023-04-18T21:36:44.013Z,4.97
2023-04-18T21:38:25.356Z,4.93
2023-04-18T21:40:06.656Z,5.18
2023-04-18T21:41:47.963Z,5.19
2023-04-18T21:43:29.288Z,5.07
2023-04-18T21:45:10.577Z,5.46
2023-04-18T21:46:51.866Z,5.60
2023-04-18T21:48:33.214Z,5.77
2023-04-18T21:50:14.629Z,5.78
2023-04-18T21:51:55.975Z,5.58
2023-04-18T21:53:37.252Z,5.20
2023-04-18T21:55:18.524Z,5.49
2023-04-18T21:56:59.832Z,5.64
2023-04-18T21:58:41.100Z,5.59
2023-04-18T22:00:22.397Z,5.10
2023-04-18T22:02:03.796Z,5.16
2023-04-18T22:03:45.301Z,4.68
2023-04-18T22:05:26.727Z,4.53
2023-04-18T22:07:08.009Z,4.53
2023-04-18T22:08:49.283Z,4.44
2023-04-18T22:10:30.605Z,4.31
2023-04-18T22:12:11.943Z,4.16
2023-04-18T22:13:53.217Z,4.00
2023-04-18T22:15:34.524Z,4.24
2023-04-18T22:17:15.879Z,4.14
2023-04-18T22:18:57.188Z,4.04
2023-04-18T22:20:38.497Z,3.80
2023-04-18T22:22:19.832Z,4.05